Ruislip, United Kingdom

7:06 AM BST on June 29, 2017 (GMT +0100)
Ruislip | | Change Station

Elev 135 ft 51.56 °N, 0.40 °W | Updated 98 days ago

Overcast
Overcast
47.1 °F
Feels Like 47 °F
N
0.0
Wind Variable Wind from North
Gusts 0.7 mph

Today
High -- | Low -- °F
--% Chance of Precip.
Yesterday
High -- | Low -- °F
Precip. -- in
Pressure 29.36 in
Visibility 6.2 miles
Clouds Scattered Clouds 1300 ft
Overcast 3200 ft
Windchill 47 °F
Dew Point 38 °F
Humidity 70%
Rainfall in
Snow Depth Not available.
4:47 AM 9:22 PM
Waxing Crescent, 32% visible
METAR EGWU 290550Z 29006KT 9999 SCT013 OVC032 12/09 Q0994 GRN TEMPO FEW013 BLU
Pressure 29.36 in
Visibility 6.2 miles
Clouds Scattered Clouds 1300 ft
Overcast 3200 ft
Windchill 47 °F
Dew Point 38 °F
Humidity 70%
Rainfall in
Snow Depth Not available.
4:47 AM 9:22 PM
Waxing Crescent, 32% visible
METAR EGWU 290550Z 29006KT 9999 SCT013 OVC032 12/09 Q0994 GRN TEMPO FEW013 BLU

Get Severe Weather Alerts

Thanks for signing up!

Be on the lookout for a verification email in your inbox.

You'll start receiving the daily forecast at 6 AM.

×

10-Day Weather Forecast

×

Almanac

Astronomy

Jun. 29, 2017 Rise Set
Actual Time
Civil Twilight
Nautical Twilight
Astronomical Twilight
Moon
Length of Visible Light
Length of Day
Tomorrow will be .
, % of the Moon is Illuminated

Today's Extremes

Country Highs Country Lows

Community

WunderPhotos

Category 6

Welcome to Category 6. This is the collective home for Weather Underground's featured writeups by Dr. Jeff Masters (right), Bob Henson (left), Chris Burt, and other regular contributors.

Nearby

Air Quality

  Air Quality AQ Index Pollutant
Not available.

Snow Depth

Station Depth Elevation

Earthquake Activity

City Distance Mag. Time & Date
Minimum magnitude displayed is 2.5.

Coastal Water Temperatures

Place Temperature

Stations

Nearby Weather Stations

Station Location Temp. Windchill Dew Point Humidity Wind Precip. Elev Updated Type